sensor_id;sensor_type;location;lat;lon;timestamp;pressure;altitude;pressure_sealevel;temperature;humidity
21096;BME280;10706;49.036;12.112;2023-04-25T00:01:25;97049.91;;;7.48;79.77
21096;BME280;10706;49.036;12.112;2023-04-25T00:03:50;97057.19;;;7.52;79.57
21096;BME280;10706;49.036;12.112;2023-04-25T00:06:16;97049.13;;;7.47;79.38
21096;BME280;10706;49.036;12.112;2023-04-25T00:08:43;97043.31;;;7.50;79.98
21096;BME280;10706;49.036;12.112;2023-04-25T00:11:09;97053.59;;;7.47;80.32
21096;BME280;10706;49.036;12.112;2023-04-25T00:13:35;97043.69;;;7.42;81.05
21096;BME280;10706;49.036;12.112;2023-04-25T00:16:01;97046.00;;;7.38;80.37
21096;BME280;10706;49.036;12.112;2023-04-25T00:18:28;97037.44;;;7.36;81.31
21096;BME280;10706;49.036;12.112;2023-04-25T00:20:58;97047.72;;;7.33;80.51
21096;BME280;10706;49.036;12.112;2023-04-25T00:23:24;97047.63;;;7.39;80.06
21096;BME280;10706;49.036;12.112;2023-04-25T00:25:50;97045.41;;;7.36;81.42
21096;BME280;10706;49.036;12.112;2023-04-25T00:28:16;97037.56;;;7.42;81.29
21096;BME280;10706;49.036;12.112;2023-04-25T00:30:43;97036.66;;;7.36;81.74
21096;BME280;10706;49.036;12.112;2023-04-25T00:33:09;97037.91;;;7.33;82.07
21096;BME280;10706;49.036;12.112;2023-04-25T00:35:35;97043.78;;;7.35;81.97
21096;BME280;10706;49.036;12.112;2023-04-25T00:38:01;97047.94;;;7.31;80.01
21096;BME280;10706;49.036;12.112;2023-04-25T00:40:28;97043.44;;;7.32;80.06
21096;BME280;10706;49.036;12.112;2023-04-25T00:42:54;97031.78;;;7.33;79.94
21096;BME280;10706;49.036;12.112;2023-04-25T00:45:20;97035.03;;;7.35;80.03
21096;BME280;10706;49.036;12.112;2023-04-25T00:47:46;97040.00;;;7.31;79.11
21096;BME280;10706;49.036;12.112;2023-04-25T00:50:13;97038.84;;;7.27;79.74
21096;BME280;10706;49.036;12.112;2023-04-25T00:52:44;97039.63;;;7.28;80.13
21096;BME280;10706;49.036;12.112;2023-04-25T00:55:11;97035.16;;;7.28;80.13
21096;BME280;10706;49.036;12.112;2023-04-25T00:57:38;97032.16;;;7.25;79.44
21096;BME280;10706;49.036;12.112;2023-04-25T01:00:06;97030.66;;;7.29;80.88
21096;BME280;10706;49.036;12.112;2023-04-25T01:02:33;97031.31;;;7.24;81.54
21096;BME280;10706;49.036;12.112;2023-04-25T01:05:01;97031.81;;;7.21;81.21
21096;BME280;10706;49.036;12.112;2023-04-25T01:07:28;97023.94;;;7.14;81.03
21096;BME280;10706;49.036;12.112;2023-04-25T01:09:54;97027.66;;;7.13;81.58
21096;BME280;10706;49.036;12.112;2023-04-25T01:12:20;97032.03;;;7.08;80.94
21096;BME280;10706;49.036;12.112;2023-04-25T01:14:46;97026.72;;;7.08;82.99
21096;BME280;10706;49.036;12.112;2023-04-25T01:17:12;97025.31;;;7.05;83.28
21096;BME280;10706;49.036;12.112;2023-04-25T01:19:38;97024.88;;;7.08;82.00
21096;BME280;10706;49.036;12.112;2023-04-25T01:22:04;97028.56;;;7.07;80.75
21096;BME280;10706;49.036;12.112;2023-04-25T01:24:32;97025.31;;;7.17;81.06
21096;BME280;10706;49.036;12.112;2023-04-25T01:26:59;97030.88;;;7.15;80.77
21096;BME280;10706;49.036;12.112;2023-04-25T01:29:27;97035.13;;;7.16;81.31
21096;BME280;10706;49.036;12.112;2023-04-25T01:31:53;97032.25;;;7.18;81.28
21096;BME280;10706;49.036;12.112;2023-04-25T01:34:19;97033.75;;;7.26;81.18
21096;BME280;10706;49.036;12.112;2023-04-25T01:36:47;97033.41;;;7.22;80.02
21096;BME280;10706;49.036;12.112;2023-04-25T01:39:15;97032.84;;;7.20;81.42
21096;BME280;10706;49.036;12.112;2023-04-25T01:41:41;97033.88;;;7.19;81.70
21096;BME280;10706;49.036;12.112;2023-04-25T01:44:06;97032.84;;;7.20;81.72
21096;BME280;10706;49.036;12.112;2023-04-25T01:46:33;97035.59;;;7.25;80.32
21096;BME280;10706;49.036;12.112;2023-04-25T01:49:00;97027.50;;;7.32;80.82
21096;BME280;10706;49.036;12.112;2023-04-25T01:51:26;97028.34;;;7.32;80.15
21096;BME280;10706;49.036;12.112;2023-04-25T01:53:52;97035.59;;;7.37;79.52
21096;BME280;10706;49.036;12.112;2023-04-25T01:56:18;97034.09;;;7.29;79.36
21096;BME280;10706;49.036;12.112;2023-04-25T01:58:44;97033.97;;;7.24;79.06
21096;BME280;10706;49.036;12.112;2023-04-25T02:01:10;97036.31;;;7.32;79.27
21096;BME280;10706;49.036;12.112;2023-04-25T02:03:36;97034.81;;;7.25;79.01
21096;BME280;10706;49.036;12.112;2023-04-25T02:06:02;97027.06;;;7.23;79.86
21096;BME280;10706;49.036;12.112;2023-04-25T02:08:28;97028.09;;;7.22;79.49
21096;BME280;10706;49.036;12.112;2023-04-25T02:10:53;97027.28;;;7.22;79.31
21096;BME280;10706;49.036;12.112;2023-04-25T02:13:19;97025.22;;;7.24;80.61
21096;BME280;10706;49.036;12.112;2023-04-25T02:15:45;97025.91;;;7.19;79.46
21096;BME280;10706;49.036;12.112;2023-04-25T02:18:10;97028.44;;;7.14;79.61
21096;BME280;10706;49.036;12.112;2023-04-25T02:20:36;97019.69;;;7.13;79.63
21096;BME280;10706;49.036;12.112;2023-04-25T02:23:03;97026.81;;;7.13;79.58
21096;BME280;10706;49.036;12.112;2023-04-25T02:25:29;97020.72;;;7.12;80.38
21096;BME280;10706;49.036;12.112;2023-04-25T02:27:55;97019.34;;;7.10;80.92
21096;BME280;10706;49.036;12.112;2023-04-25T02:30:20;97021.41;;;7.08;80.08
21096;BME280;10706;49.036;12.112;2023-04-25T02:32:46;97012.63;;;7.07;79.78
21096;BME280;10706;49.036;12.112;2023-04-25T02:35:12;97010.53;;;7.09;80.30
21096;BME280;10706;49.036;12.112;2023-04-25T02:37:39;97011.81;;;7.07;79.99
21096;BME280;10706;49.036;12.112;2023-04-25T02:40:05;97005.94;;;7.05;79.65
21096;BME280;10706;49.036;12.112;2023-04-25T02:42:32;97002.94;;;7.01;80.34
21096;BME280;10706;49.036;12.112;2023-04-25T02:44:58;97004.22;;;6.98;80.53
21096;BME280;10706;49.036;12.112;2023-04-25T02:47:23;96993.69;;;6.92;80.30
21096;BME280;10706;49.036;12.112;2023-04-25T02:49:49;97001.44;;;6.93;80.51
21096;BME280;10706;49.036;12.112;2023-04-25T02:52:15;96998.44;;;6.90;80.53
21096;BME280;10706;49.036;12.112;2023-04-25T02:54:41;96995.19;;;6.88;80.51
21096;BME280;10706;49.036;12.112;2023-04-25T02:57:07;96990.13;;;6.86;81.57
21096;BME280;10706;49.036;12.112;2023-04-25T02:59:33;96993.81;;;6.85;81.76
21096;BME280;10706;49.036;12.112;2023-04-25T03:02:00;96993.00;;;6.85;81.86
21096;BME280;10706;49.036;12.112;2023-04-25T03:04:25;96988.75;;;6.84;81.75
21096;BME280;10706;49.036;12.112;2023-04-25T03:06:52;96982.88;;;6.81;81.46
21096;BME280;10706;49.036;12.112;2023-04-25T03:09:18;96984.47;;;6.82;81.64
21096;BME280;10706;49.036;12.112;2023-04-25T03:11:45;96978.13;;;6.84;81.55
21096;BME280;10706;49.036;12.112;2023-04-25T03:14:11;96980.78;;;6.84;81.72
21096;BME280;10706;49.036;12.112;2023-04-25T03:16:37;96979.97;;;6.83;81.66
21096;BME280;10706;49.036;12.112;2023-04-25T03:19:03;96977.56;;;6.81;82.50
21096;BME280;10706;49.036;12.112;2023-04-25T03:21:32;96977.22;;;6.78;81.47
21096;BME280;10706;49.036;12.112;2023-04-25T03:23:58;96970.03;;;6.78;81.61
21096;BME280;10706;49.036;12.112;2023-04-25T03:26:24;96968.41;;;6.77;81.50
21096;BME280;10706;49.036;12.112;2023-04-25T03:28:50;96966.59;;;6.78;81.78
21096;BME280;10706;49.036;12.112;2023-04-25T03:31:16;96971.69;;;6.79;80.97
21096;BME280;10706;49.036;12.112;2023-04-25T03:33:42;96977.78;;;6.80;80.86
21096;BME280;10706;49.036;12.112;2023-04-25T03:36:08;96980.31;;;6.87;80.65
21096;BME280;10706;49.036;12.112;2023-04-25T03:38:35;96970.97;;;6.84;81.30
21096;BME280;10706;49.036;12.112;2023-04-25T03:41:01;96974.41;;;6.85;81.26
21096;BME280;10706;49.036;12.112;2023-04-25T03:43:27;96970.97;;;6.84;81.57
21096;BME280;10706;49.036;12.112;2023-04-25T03:45:53;96977.31;;;6.83;81.47
21096;BME280;10706;49.036;12.112;2023-04-25T03:48:19;96978.81;;;7.03;82.85
21096;BME280;10706;49.036;12.112;2023-04-25T03:50:47;96988.66;;;7.02;80.78
21096;BME280;10706;49.036;12.112;2023-04-25T03:53:13;96985.97;;;6.90;81.14
21096;BME280;10706;49.036;12.112;2023-04-25T03:55:39;96988.25;;;6.87;81.19
21096;BME280;10706;49.036;12.112;2023-04-25T03:58:05;96984.00;;;6.86;81.43
21096;BME280;10706;49.036;12.112;2023-04-25T04:00:31;96984.81;;;6.86;81.18
21096;BME280;10706;49.036;12.112;2023-04-25T04:02:57;96989.66;;;6.89;81.90
21096;BME280;10706;49.036;12.112;2023-04-25T04:05:22;96985.63;;;6.87;81.00
21096;BME280;10706;49.036;12.112;2023-04-25T04:07:48;96990.69;;;7.00;81.54
21096;BME280;10706;49.036;12.112;2023-04-25T04:10:14;96977.78;;;6.92;80.90
21096;BME280;10706;49.036;12.112;2023-04-25T04:12:40;96979.16;;;6.94;80.48
21096;BME280;10706;49.036;12.112;2023-04-25T04:15:07;96970.75;;;6.97;80.23
21096;BME280;10706;49.036;12.112;2023-04-25T04:17:33;96970.97;;;6.96;81.12
21096;BME280;10706;49.036;12.112;2023-04-25T04:19:59;96976.03;;;6.97;80.26
21096;BME280;10706;49.036;12.112;2023-04-25T04:22:25;96976.63;;;6.99;80.44
21096;BME280;10706;49.036;12.112;2023-04-25T04:24:51;96973.50;;;7.03;80.86
21096;BME280;10706;49.036;12.112;2023-04-25T04:27:18;96976.97;;;7.03;79.92
21096;BME280;10706;49.036;12.112;2023-04-25T04:29:45;96979.41;;;7.05;80.63
21096;BME280;10706;49.036;12.112;2023-04-25T04:32:14;96972.59;;;7.09;80.03
21096;BME280;10706;49.036;12.112;2023-04-25T04:34:40;96967.06;;;7.10;79.71
21096;BME280;10706;49.036;12.112;2023-04-25T04:37:07;96974.31;;;7.15;80.66
21096;BME280;10706;49.036;12.112;2023-04-25T04:39:36;96974.88;;;7.17;80.83
21096;BME280;10706;49.036;12.112;2023-04-25T04:42:02;96967.25;;;7.20;79.11
21096;BME280;10706;49.036;12.112;2023-04-25T04:44:29;96967.03;;;7.22;79.45
21096;BME280;10706;49.036;12.112;2023-04-25T04:46:59;96972.00;;;7.30;79.96
21096;BME280;10706;49.036;12.112;2023-04-25T04:49:25;96964.59;;;7.32;79.28
21096;BME280;10706;49.036;12.112;2023-04-25T04:51:50;96965.63;;;7.31;78.98
21096;BME280;10706;49.036;12.112;2023-04-25T04:54:16;96971.28;;;7.35;79.36
21096;BME280;10706;49.036;12.112;2023-04-25T04:56:42;96979.72;;;7.32;78.90
21096;BME280;10706;49.036;12.112;2023-04-25T04:59:09;96981.78;;;7.30;79.58
21096;BME280;10706;49.036;12.112;2023-04-25T05:01:34;96995.44;;;7.22;79.66
21096;BME280;10706;49.036;12.112;2023-04-25T05:04:04;96983.53;;;7.12;80.89
21096;BME280;10706;49.036;12.112;2023-04-25T05:06:30;96985.72;;;7.04;80.59
21096;BME280;10706;49.036;12.112;2023-04-25T05:08:57;96986.22;;;7.00;80.11
21096;BME280;10706;49.036;12.112;2023-04-25T05:11:26;96985.06;;;6.96;80.86
21096;BME280;10706;49.036;12.112;2023-04-25T05:13:52;96979.28;;;6.99;82.20
21096;BME280;10706;49.036;12.112;2023-04-25T05:16:19;96982.16;;;6.86;81.23
21096;BME280;10706;49.036;12.112;2023-04-25T05:18:45;96977.19;;;6.90;81.10
21096;BME280;10706;49.036;12.112;2023-04-25T05:21:11;96974.31;;;7.27;81.19
21096;BME280;10706;49.036;12.112;2023-04-25T05:23:37;96976.38;;;7.36;78.63
21096;BME280;10706;49.036;12.112;2023-04-25T05:26:03;96987.47;;;7.10;79.33
21096;BME280;10706;49.036;12.112;2023-04-25T05:28:29;96981.13;;;6.99;81.09
21096;BME280;10706;49.036;12.112;2023-04-25T05:30:55;96983.34;;;7.02;80.80
21096;BME280;10706;49.036;12.112;2023-04-25T05:33:21;96981.00;;;7.29;80.39
21096;BME280;10706;49.036;12.112;2023-04-25T05:35:47;96978.06;;;7.95;79.27
21096;BME280;10706;49.036;12.112;2023-04-25T05:38:12;96981.97;;;8.04;76.79
21096;BME280;10706;49.036;12.112;2023-04-25T05:40:38;96978.13;;;7.83;76.52
21096;BME280;10706;49.036;12.112;2023-04-25T05:43:04;96978.63;;;7.68;77.98
21096;BME280;10706;49.036;12.112;2023-04-25T05:45:30;96979.03;;;7.89;77.52
21096;BME280;10706;49.036;12.112;2023-04-25T05:47:56;96980.38;;;7.91;77.64
21096;BME280;10706;49.036;12.112;2023-04-25T05:50:22;96979.25;;;7.87;76.75
21096;BME280;10706;49.036;12.112;2023-04-25T05:52:47;96975.91;;;8.09;77.04
21096;BME280;10706;49.036;12.112;2023-04-25T05:55:13;96971.94;;;8.23;76.70
21096;BME280;10706;49.036;12.112;2023-04-25T05:57:39;96964.38;;;8.32;74.85
21096;BME280;10706;49.036;12.112;2023-04-25T06:00:08;96966.59;;;8.52;74.70
21096;BME280;10706;49.036;12.112;2023-04-25T06:02:35;96958.22;;;8.77;74.13
21096;BME280;10706;49.036;12.112;2023-04-25T06:05:01;96960.91;;;8.77;73.85
21096;BME280;10706;49.036;12.112;2023-04-25T06:07:29;96962.81;;;8.65;72.93
21096;BME280;10706;49.036;12.112;2023-04-25T06:09:56;96964.09;;;8.45;74.40
21096;BME280;10706;49.036;12.112;2023-04-25T06:12:22;96960.81;;;8.72;72.81
21096;BME280;10706;49.036;12.112;2023-04-25T06:14:47;96964.25;;;9.06;72.87
21096;BME280;10706;49.036;12.112;2023-04-25T06:17:13;96962.44;;;9.51;71.28
21096;BME280;10706;49.036;12.112;2023-04-25T06:19:39;96965.19;;;9.56;71.17
21096;BME280;10706;49.036;12.112;2023-04-25T06:22:05;96962.56;;;9.39;69.02
21096;BME280;10706;49.036;12.112;2023-04-25T06:24:31;96960.19;;;9.21;71.19
21096;BME280;10706;49.036;12.112;2023-04-25T06:26:56;96961.97;;;9.15;70.23
21096;BME280;10706;49.036;12.112;2023-04-25T06:29:22;96965.97;;;8.95;71.50
21096;BME280;10706;49.036;12.112;2023-04-25T06:31:48;96967.81;;;8.78;72.22
21096;BME280;10706;49.036;12.112;2023-04-25T06:34:13;96960.09;;;8.93;72.00
21096;BME280;10706;49.036;12.112;2023-04-25T06:36:39;96960.31;;;8.92;71.30
21096;BME280;10706;49.036;12.112;2023-04-25T06:39:07;96951.69;;;8.85;71.76
21096;BME280;10706;49.036;12.112;2023-04-25T06:41:33;96946.66;;;9.05;72.33
21096;BME280;10706;49.036;12.112;2023-04-25T06:43:58;96951.63;;;9.19;70.25
21096;BME280;10706;49.036;12.112;2023-04-25T06:46:24;96951.97;;;9.22;70.86
21096;BME280;10706;49.036;12.112;2023-04-25T06:48:50;96960.56;;;8.90;70.52
21096;BME280;10706;49.036;12.112;2023-04-25T06:51:16;96965.06;;;9.07;71.92
21096;BME280;10706;49.036;12.112;2023-04-25T06:53:42;96952.50;;;9.24;70.08
21096;BME280;10706;49.036;12.112;2023-04-25T06:56:07;96952.41;;;9.58;69.08
21096;BME280;10706;49.036;12.112;2023-04-25T06:58:33;96945.47;;;9.57;69.92
21096;BME280;10706;49.036;12.112;2023-04-25T07:00:59;96958.16;;;9.94;68.67
21096;BME280;10706;49.036;12.112;2023-04-25T07:03:24;96958.38;;;10.15;66.14
21096;BME280;10706;49.036;12.112;2023-04-25T07:05:50;96958.47;;;9.98;67.77
21096;BME280;10706;49.036;12.112;2023-04-25T07:08:17;96958.94;;;9.95;67.73
21096;BME280;10706;49.036;12.112;2023-04-25T07:10:42;96961.34;;;9.69;67.22
21096;BME280;10706;49.036;12.112;2023-04-25T07:13:08;96967.59;;;9.36;67.17
21096;BME280;10706;49.036;12.112;2023-04-25T07:15:34;96972.63;;;9.54;66.37
21096;BME280;10706;49.036;12.112;2023-04-25T07:18:00;96962.31;;;9.85;66.49
21096;BME280;10706;49.036;12.112;2023-04-25T07:20:25;96965.03;;;10.12;65.75
21096;BME280;10706;49.036;12.112;2023-04-25T07:22:53;96966.78;;;10.01;62.29
21096;BME280;10706;49.036;12.112;2023-04-25T07:25:19;96957.88;;;10.18;64.13
21096;BME280;10706;49.036;12.112;2023-04-25T07:27:45;96960.88;;;10.26;64.10
21096;BME280;10706;49.036;12.112;2023-04-25T07:30:11;96965.25;;;10.33;64.34
21096;BME280;10706;49.036;12.112;2023-04-25T07:32:38;96955.06;;;10.02;62.35
21096;BME280;10706;49.036;12.112;2023-04-25T07:35:04;96956.91;;;9.80;64.50
21096;BME280;10706;49.036;12.112;2023-04-25T07:37:30;96955.31;;;10.01;65.25
21096;BME280;10706;49.036;12.112;2023-04-25T07:39:56;96958.50;;;10.30;64.63
21096;BME280;10706;49.036;12.112;2023-04-25T07:42:22;96955.75;;;10.47;64.91
21096;BME280;10706;49.036;12.112;2023-04-25T07:44:47;96960.50;;;10.12;64.77
21096;BME280;10706;49.036;12.112;2023-04-25T07:47:13;96958.06;;;9.84;65.87
21096;BME280;10706;49.036;12.112;2023-04-25T07:49:39;96957.91;;;9.73;66.35
21096;BME280;10706;49.036;12.112;2023-04-25T07:52:05;96970.97;;;9.48;64.82
21096;BME280;10706;49.036;12.112;2023-04-25T07:54:31;96958.34;;;9.43;66.90
21096;BME280;10706;49.036;12.112;2023-04-25T07:56:58;96948.19;;;9.62;65.62
21096;BME280;10706;49.036;12.112;2023-04-25T07:59:24;96958.38;;;9.87;63.82
21096;BME280;10706;49.036;12.112;2023-04-25T08:01:50;96960.00;;;10.16;64.10
21096;BME280;10706;49.036;12.112;2023-04-25T08:04:16;96951.53;;;10.24;62.42
21096;BME280;10706;49.036;12.112;2023-04-25T08:06:43;96952.47;;;10.12;61.62
21096;BME280;10706;49.036;12.112;2023-04-25T08:09:09;96955.94;;;10.13;63.23
21096;BME280;10706;49.036;12.112;2023-04-25T08:11:35;96952.72;;;10.33;63.88
21096;BME280;10706;49.036;12.112;2023-04-25T08:14:01;96957.50;;;10.09;62.71
21096;BME280;10706;49.036;12.112;2023-04-25T08:16:27;96947.94;;;10.13;61.85
21096;BME280;10706;49.036;12.112;2023-04-25T08:18:53;96956.31;;;10.22;60.13
21096;BME280;10706;49.036;12.112;2023-04-25T08:21:20;96952.94;;;10.59;60.88
21096;BME280;10706;49.036;12.112;2023-04-25T08:23:45;96948.94;;;10.61;58.71
21096;BME280;10706;49.036;12.112;2023-04-25T08:26:11;96953.50;;;10.66;59.40
21096;BME280;10706;49.036;12.112;2023-04-25T08:28:37;96954.97;;;10.46;58.92
21096;BME280;10706;49.036;12.112;2023-04-25T08:31:03;96963.69;;;10.69;58.45
21096;BME280;10706;49.036;12.112;2023-04-25T08:33:29;96963.31;;;10.87;56.08
21096;BME280;10706;49.036;12.112;2023-04-25T08:35:55;96956.47;;;11.02;58.43
21096;BME280;10706;49.036;12.112;2023-04-25T08:38:21;96956.75;;;11.53;58.32
21096;BME280;10706;49.036;12.112;2023-04-25T08:40:50;96959.75;;;11.72;57.61
21096;BME280;10706;49.036;12.112;2023-04-25T08:43:19;96968.41;;;11.90;56.82
21096;BME280;10706;49.036;12.112;2023-04-25T08:45:46;96967.16;;;11.50;57.02
21096;BME280;10706;49.036;12.112;2023-04-25T08:48:14;96968.78;;;11.51;58.01
21096;BME280;10706;49.036;12.112;2023-04-25T08:50:54;96971.66;;;11.01;57.36
21096;BME280;10706;49.036;12.112;2023-04-25T08:53:32;96971.75;;;10.74;58.67
21096;BME280;10706;49.036;12.112;2023-04-25T08:56:01;96978.53;;;10.92;58.18
21096;BME280;10706;49.036;12.112;2023-04-25T08:58:28;96977.97;;;11.22;58.15
21096;BME280;10706;49.036;12.112;2023-04-25T09:00:54;96983.19;;;11.50;58.18
21096;BME280;10706;49.036;12.112;2023-04-25T09:03:20;96987.44;;;11.45;57.18
21096;BME280;10706;49.036;12.112;2023-04-25T09:05:46;96989.63;;;11.06;58.05
21096;BME280;10706;49.036;12.112;2023-04-25T09:08:11;96996.09;;;10.78;58.44
21096;BME280;10706;49.036;12.112;2023-04-25T09:10:37;96990.50;;;10.79;59.25
21096;BME280;10706;49.036;12.112;2023-04-25T09:13:12;96993.59;;;10.71;59.91
21096;BME280;10706;49.036;12.112;2023-04-25T09:15:54;96989.47;;;10.85;58.94
21096;BME280;10706;49.036;12.112;2023-04-25T09:18:32;97000.47;;;10.62;60.84
21096;BME280;10706;49.036;12.112;2023-04-25T09:21:10;96999.06;;;10.54;62.59
21096;BME280;10706;49.036;12.112;2023-04-25T09:23:43;97000.72;;;10.60;62.73
21096;BME280;10706;49.036;12.112;2023-04-25T09:26:09;97008.28;;;10.41;63.49
21096;BME280;10706;49.036;12.112;2023-04-25T09:28:35;97017.09;;;9.70;71.09
21096;BME280;10706;49.036;12.112;2023-04-25T09:31:03;97013.63;;;8.80;74.26
21096;BME280;10706;49.036;12.112;2023-04-25T09:33:32;97019.34;;;8.72;76.89
21096;BME280;10706;49.036;12.112;2023-04-25T09:36:04;97017.13;;;8.98;75.13
21096;BME280;10706;49.036;12.112;2023-04-25T09:38:31;97014.19;;;9.33;73.18
21096;BME280;10706;49.036;12.112;2023-04-25T09:40:58;97019.25;;;9.96;71.81
21096;BME280;10706;49.036;12.112;2023-04-25T09:43:25;97017.50;;;10.88;68.17
21096;BME280;10706;49.036;12.112;2023-04-25T09:45:56;97013.47;;;11.60;64.85
21096;BME280;10706;49.036;12.112;2023-04-25T09:48:27;97024.94;;;11.56;65.35
21096;BME280;10706;49.036;12.112;2023-04-25T09:51:09;97028.91;;;10.78;64.13
21096;BME280;10706;49.036;12.112;2023-04-25T09:53:38;97041.94;;;9.76;72.91
21096;BME280;10706;49.036;12.112;2023-04-25T09:56:06;97044.91;;;8.56;79.14
21096;BME280;10706;49.036;12.112;2023-04-25T09:58:33;97039.28;;;8.12;82.11
21096;BME280;10706;49.036;12.112;2023-04-25T10:01:05;97056.88;;;8.01;82.12
21096;BME280;10706;49.036;12.112;2023-04-25T10:03:33;97042.94;;;8.23;80.09
21096;BME280;10706;49.036;12.112;2023-04-25T10:06:04;97029.53;;;9.26;78.21
21096;BME280;10706;49.036;12.112;2023-04-25T10:08:35;97035.53;;;9.77;71.23
21096;BME280;10706;49.036;12.112;2023-04-25T10:11:06;97045.25;;;9.44;72.26
21096;BME280;10706;49.036;12.112;2023-04-25T10:13:35;97042.03;;;9.25;71.32
21096;BME280;10706;49.036;12.112;2023-04-25T10:16:03;97042.00;;;9.59;70.26
21096;BME280;10706;49.036;12.112;2023-04-25T10:18:30;97043.19;;;10.12;68.26
21096;BME280;10706;49.036;12.112;2023-04-25T10:20:59;97047.09;;;10.27;65.85
21096;BME280;10706;49.036;12.112;2023-04-25T10:23:25;97051.09;;;10.29;68.07
21096;BME280;10706;49.036;12.112;2023-04-25T10:25:52;97042.16;;;10.19;69.12
21096;BME280;10706;49.036;12.112;2023-04-25T10:28:19;97055.81;;;10.00;69.47
21096;BME280;10706;49.036;12.112;2023-04-25T10:31:07;97065.16;;;9.59;72.52
21096;BME280;10706;49.036;12.112;2023-04-25T10:33:38;97070.75;;;9.40;74.65
21096;BME280;10706;49.036;12.112;2023-04-25T10:36:24;97068.50;;;9.32;74.89
21096;BME280;10706;49.036;12.112;2023-04-25T10:38:52;97069.63;;;9.36;73.94
21096;BME280;10706;49.036;12.112;2023-04-25T10:41:20;97063.91;;;9.10;74.67
21096;BME280;10706;49.036;12.112;2023-04-25T10:43:49;97063.03;;;9.39;74.92
21096;BME280;10706;49.036;12.112;2023-04-25T10:46:29;97057.38;;;9.57;72.35
21096;BME280;10706;49.036;12.112;2023-04-25T10:48:58;97054.69;;;9.74;72.98
21096;BME280;10706;49.036;12.112;2023-04-25T10:51:33;97053.28;;;9.88;70.81
21096;BME280;10706;49.036;12.112;2023-04-25T10:54:04;97054.09;;;10.33;74.17
21096;BME280;10706;49.036;12.112;2023-04-25T10:56:38;97051.22;;;10.94;69.36
21096;BME280;10706;49.036;12.112;2023-04-25T10:59:17;97056.03;;;11.29;66.82
21096;BME280;10706;49.036;12.112;2023-04-25T11:01:52;97053.25;;;11.52;65.20
21096;BME280;10706;49.036;12.112;2023-04-25T11:04:29;97056.00;;;11.24;61.35
21096;BME280;10706;49.036;12.112;2023-04-25T11:07:06;97059.28;;;10.99;61.56
21096;BME280;10706;49.036;12.112;2023-04-25T11:09:35;97051.06;;;10.74;60.64
21096;BME280;10706;49.036;12.112;2023-04-25T11:12:01;97058.25;;;10.46;58.98
21096;BME280;10706;49.036;12.112;2023-04-25T11:14:27;97053.66;;;10.19;60.62
21096;BME280;10706;49.036;12.112;2023-04-25T11:16:57;97046.72;;;10.40;60.18
21096;BME280;10706;49.036;12.112;2023-04-25T11:19:25;97049.13;;;10.69;57.38
21096;BME280;10706;49.036;12.112;2023-04-25T11:21:55;97055.72;;;11.21;56.75
21096;BME280;10706;49.036;12.112;2023-04-25T11:24:27;97063.22;;;11.66;55.87
21096;BME280;10706;49.036;12.112;2023-04-25T11:26:53;97061.13;;;11.31;56.71
21096;BME280;10706;49.036;12.112;2023-04-25T11:29:22;97066.44;;;10.94;57.84
21096;BME280;10706;49.036;12.112;2023-04-25T11:31:48;97061.50;;;10.80;59.08
21096;BME280;10706;49.036;12.112;2023-04-25T11:34:20;97058.44;;;11.31;56.31
21096;BME280;10706;49.036;12.112;2023-04-25T11:36:46;97052.16;;;11.95;55.15
21096;BME280;10706;49.036;12.112;2023-04-25T11:39:12;97047.22;;;12.35;53.85
21096;BME280;10706;49.036;12.112;2023-04-25T11:41:38;97048.41;;;12.75;52.47
21096;BME280;10706;49.036;12.112;2023-04-25T11:44:05;97050.81;;;12.71;52.52
21096;BME280;10706;49.036;12.112;2023-04-25T11:46:33;97045.75;;;11.96;52.07
21096;BME280;10706;49.036;12.112;2023-04-25T11:48:59;97047.28;;;11.87;52.56
21096;BME280;10706;49.036;12.112;2023-04-25T11:51:25;97050.34;;;12.06;50.46
21096;BME280;10706;49.036;12.112;2023-04-25T11:53:51;97045.16;;;12.62;47.50
21096;BME280;10706;49.036;12.112;2023-04-25T11:56:17;97038.47;;;13.06;49.11
21096;BME280;10706;49.036;12.112;2023-04-25T11:59:04;97045.19;;;12.88;47.49
21096;BME280;10706;49.036;12.112;2023-04-25T12:01:33;97042.25;;;13.05;47.10
21096;BME280;10706;49.036;12.112;2023-04-25T12:04:17;97049.47;;;13.56;47.59
21096;BME280;10706;49.036;12.112;2023-04-25T12:06:45;97050.56;;;13.50;48.25
21096;BME280;10706;49.036;12.112;2023-04-25T12:09:18;97047.34;;;13.27;48.17
21096;BME280;10706;49.036;12.112;2023-04-25T12:11:46;97051.38;;;12.99;49.80
21096;BME280;10706;49.036;12.112;2023-04-25T12:14:27;97052.94;;;12.95;47.81
21096;BME280;10706;49.036;12.112;2023-04-25T12:17:00;97051.34;;;12.78;47.96
21096;BME280;10706;49.036;12.112;2023-04-25T12:19:31;97055.38;;;13.07;46.52
21096;BME280;10706;49.036;12.112;2023-04-25T12:21:59;97060.97;;;12.74;47.91
21096;BME280;10706;49.036;12.112;2023-04-25T12:24:26;97066.06;;;12.81;47.86
21096;BME280;10706;49.036;12.112;2023-04-25T12:27:14;97059.34;;;12.63;48.47
21096;BME280;10706;49.036;12.112;2023-04-25T12:29:54;97062.31;;;11.93;49.95
21096;BME280;10706;49.036;12.112;2023-04-25T12:32:20;97058.19;;;12.28;49.46
21096;BME280;10706;49.036;12.112;2023-04-25T12:34:46;97056.91;;;12.41;48.00
21096;BME280;10706;49.036;12.112;2023-04-25T12:37:12;97055.63;;;12.95;46.77
21096;BME280;10706;49.036;12.112;2023-04-25T12:39:38;97057.78;;;13.08;46.40
21096;BME280;10706;49.036;12.112;2023-04-25T12:42:04;97061.28;;;13.24;46.88
21096;BME280;10706;49.036;12.112;2023-04-25T12:44:30;97056.38;;;13.93;45.68
21096;BME280;10706;49.036;12.112;2023-04-25T12:46:56;97058.28;;;14.47;44.09
21096;BME280;10706;49.036;12.112;2023-04-25T12:49:22;97067.09;;;13.88;43.98
21096;BME280;10706;49.036;12.112;2023-04-25T12:51:48;97063.63;;;13.82;43.94
21096;BME280;10706;49.036;12.112;2023-04-25T12:54:14;97064.94;;;13.95;44.05
21096;BME280;10706;49.036;12.112;2023-04-25T12:56:41;97064.78;;;13.55;46.44
21096;BME280;10706;49.036;12.112;2023-04-25T12:59:07;97065.78;;;13.70;45.50